sensor_id;sensor_type;location;lat;lon;timestamp;P1;durP1;ratioP1;P2;durP2;ratioP2
16669;SDS011;8448;52.034;5.158;2022-07-15T00:00:01;4.55;;;1.98;;
16669;SDS011;8448;52.034;5.158;2022-07-15T00:02:31;6.50;;;1.88;;
16669;SDS011;8448;52.034;5.158;2022-07-15T00:04:58;4.57;;;2.13;;
16669;SDS011;8448;52.034;5.158;2022-07-15T00:07:25;7.90;;;2.20;;
16669;SDS011;8448;52.034;5.158;2022-07-15T00:09:53;5.22;;;2.17;;
16669;SDS011;8448;52.034;5.158;2022-07-15T00:12:38;4.82;;;2.05;;
16669;SDS011;8448;52.034;5.158;2022-07-15T00:15:05;4.75;;;1.98;;
16669;SDS011;8448;52.034;5.158;2022-07-15T00:17:35;5.65;;;2.35;;
16669;SDS011;8448;52.034;5.158;2022-07-15T00:20:02;5.75;;;2.22;;
16669;SDS011;8448;52.034;5.158;2022-07-15T00:22:30;9.05;;;2.65;;
16669;SDS011;8448;52.034;5.158;2022-07-15T00:24:57;7.05;;;2.45;;
16669;SDS011;8448;52.034;5.158;2022-07-15T00:27:25;6.72;;;2.40;;
16669;SDS011;8448;52.034;5.158;2022-07-15T00:29:52;9.30;;;2.47;;
16669;SDS011;8448;52.034;5.158;2022-07-15T00:32:19;4.88;;;2.30;;
16669;SDS011;8448;52.034;5.158;2022-07-15T00:34:48;6.32;;;2.15;;
16669;SDS011;8448;52.034;5.158;2022-07-15T00:37:16;7.53;;;2.75;;
16669;SDS011;8448;52.034;5.158;2022-07-15T00:39:43;5.63;;;2.45;;
16669;SDS011;8448;52.034;5.158;2022-07-15T00:42:11;4.45;;;2.17;;
16669;SDS011;8448;52.034;5.158;2022-07-15T00:44:59;6.05;;;2.28;;
16669;SDS011;8448;52.034;5.158;2022-07-15T00:47:26;9.20;;;2.67;;
16669;SDS011;8448;52.034;5.158;2022-07-15T00:49:55;7.07;;;2.20;;
16669;SDS011;8448;52.034;5.158;2022-07-15T00:52:23;5.85;;;2.30;;
16669;SDS011;8448;52.034;5.158;2022-07-15T00:54:51;6.32;;;2.50;;
16669;SDS011;8448;52.034;5.158;2022-07-15T00:57:19;5.97;;;2.35;;
16669;SDS011;8448;52.034;5.158;2022-07-15T00:59:48;5.45;;;2.53;;
16669;SDS011;8448;52.034;5.158;2022-07-15T01:02:15;7.22;;;2.50;;
16669;SDS011;8448;52.034;5.158;2022-07-15T01:04:43;7.72;;;2.13;;
16669;SDS011;8448;52.034;5.158;2022-07-15T01:07:13;5.25;;;2.60;;
16669;SDS011;8448;52.034;5.158;2022-07-15T01:09:40;7.28;;;2.40;;
16669;SDS011;8448;52.034;5.158;2022-07-15T01:12:07;7.57;;;2.40;;
16669;SDS011;8448;52.034;5.158;2022-07-15T01:14:35;5.22;;;2.17;;
16669;SDS011;8448;52.034;5.158;2022-07-15T01:17:05;5.85;;;2.42;;
16669;SDS011;8448;52.034;5.158;2022-07-15T01:19:35;9.43;;;2.42;;
16669;SDS011;8448;52.034;5.158;2022-07-15T01:22:04;7.15;;;2.42;;
16669;SDS011;8448;52.034;5.158;2022-07-15T01:24:33;5.18;;;2.50;;
16669;SDS011;8448;52.034;5.158;2022-07-15T01:27:08;6.55;;;2.75;;
16669;SDS011;8448;52.034;5.158;2022-07-15T01:29:35;7.65;;;2.70;;
16669;SDS011;8448;52.034;5.158;2022-07-15T01:32:03;7.20;;;2.72;;
16669;SDS011;8448;52.034;5.158;2022-07-15T01:34:31;7.63;;;2.42;;
16669;SDS011;8448;52.034;5.158;2022-07-15T01:36:58;6.07;;;2.58;;
16669;SDS011;8448;52.034;5.158;2022-07-15T01:39:27;5.03;;;2.63;;
16669;SDS011;8448;52.034;5.158;2022-07-15T01:41:56;6.18;;;2.70;;
16669;SDS011;8448;52.034;5.158;2022-07-15T01:44:24;7.43;;;2.95;;
16669;SDS011;8448;52.034;5.158;2022-07-15T01:46:53;5.03;;;2.33;;
16669;SDS011;8448;52.034;5.158;2022-07-15T01:49:25;7.03;;;2.58;;
16669;SDS011;8448;52.034;5.158;2022-07-15T01:52:12;5.57;;;2.30;;
16669;SDS011;8448;52.034;5.158;2022-07-15T01:54:45;5.35;;;2.50;;
16669;SDS011;8448;52.034;5.158;2022-07-15T01:57:12;8.55;;;2.70;;
16669;SDS011;8448;52.034;5.158;2022-07-15T01:59:52;6.05;;;2.80;;
16669;SDS011;8448;52.034;5.158;2022-07-15T02:02:38;7.35;;;2.63;;
16669;SDS011;8448;52.034;5.158;2022-07-15T02:05:06;5.55;;;2.78;;
16669;SDS011;8448;52.034;5.158;2022-07-15T02:07:34;6.70;;;2.70;;
16669;SDS011;8448;52.034;5.158;2022-07-15T02:10:04;7.18;;;2.88;;
16669;SDS011;8448;52.034;5.158;2022-07-15T02:12:32;7.88;;;2.83;;
16669;SDS011;8448;52.034;5.158;2022-07-15T02:14:59;8.50;;;2.75;;
16669;SDS011;8448;52.034;5.158;2022-07-15T02:17:37;5.40;;;2.55;;
16669;SDS011;8448;52.034;5.158;2022-07-15T02:20:05;7.13;;;2.50;;
16669;SDS011;8448;52.034;5.158;2022-07-15T02:22:32;3.85;;;2.50;;
16669;SDS011;8448;52.034;5.158;2022-07-15T02:25:00;6.28;;;2.70;;
16669;SDS011;8448;52.034;5.158;2022-07-15T02:27:30;7.57;;;2.80;;
16669;SDS011;8448;52.034;5.158;2022-07-15T02:29:58;6.35;;;3.00;;
16669;SDS011;8448;52.034;5.158;2022-07-15T02:32:32;7.38;;;2.80;;
16669;SDS011;8448;52.034;5.158;2022-07-15T02:34:59;5.90;;;2.70;;
16669;SDS011;8448;52.034;5.158;2022-07-15T02:37:27;4.53;;;2.80;;
16669;SDS011;8448;52.034;5.158;2022-07-15T02:39:55;9.82;;;3.85;;
16669;SDS011;8448;52.034;5.158;2022-07-15T02:42:23;10.65;;;5.38;;
16669;SDS011;8448;52.034;5.158;2022-07-15T02:44:52;11.35;;;5.68;;
16669;SDS011;8448;52.034;5.158;2022-07-15T02:47:20;8.15;;;5.70;;
16669;SDS011;8448;52.034;5.158;2022-07-15T02:49:47;10.82;;;7.00;;
16669;SDS011;8448;52.034;5.158;2022-07-15T02:52:15;12.32;;;7.50;;
16669;SDS011;8448;52.034;5.158;2022-07-15T02:54:47;13.68;;;8.18;;
16669;SDS011;8448;52.034;5.158;2022-07-15T02:57:16;22.73;;;14.82;;
16669;SDS011;8448;52.034;5.158;2022-07-15T02:59:45;29.37;;;19.03;;
16669;SDS011;8448;52.034;5.158;2022-07-15T03:02:13;49.67;;;28.83;;
16669;SDS011;8448;52.034;5.158;2022-07-15T03:04:41;52.30;;;30.73;;
16669;SDS011;8448;52.034;5.158;2022-07-15T03:07:09;54.65;;;31.23;;
16669;SDS011;8448;52.034;5.158;2022-07-15T03:09:37;48.38;;;28.60;;
16669;SDS011;8448;52.034;5.158;2022-07-15T03:12:05;42.70;;;26.33;;
16669;SDS011;8448;52.034;5.158;2022-07-15T03:14:32;39.65;;;23.50;;
16669;SDS011;8448;52.034;5.158;2022-07-15T03:16:59;36.72;;;20.38;;
16669;SDS011;8448;52.034;5.158;2022-07-15T03:19:28;28.50;;;16.65;;
16669;SDS011;8448;52.034;5.158;2022-07-15T03:21:55;27.67;;;16.00;;
16669;SDS011;8448;52.034;5.158;2022-07-15T03:24:24;21.35;;;12.55;;
16669;SDS011;8448;52.034;5.158;2022-07-15T03:26:54;19.30;;;11.57;;
16669;SDS011;8448;52.034;5.158;2022-07-15T03:29:22;19.02;;;10.38;;
16669;SDS011;8448;52.034;5.158;2022-07-15T03:31:50;16.10;;;9.48;;
16669;SDS011;8448;52.034;5.158;2022-07-15T03:34:22;17.90;;;8.63;;
16669;SDS011;8448;52.034;5.158;2022-07-15T03:36:52;13.80;;;7.50;;
16669;SDS011;8448;52.034;5.158;2022-07-15T03:39:20;13.00;;;6.70;;
16669;SDS011;8448;52.034;5.158;2022-07-15T03:41:48;12.35;;;6.15;;
16669;SDS011;8448;52.034;5.158;2022-07-15T03:44:16;11.43;;;5.57;;
16669;SDS011;8448;52.034;5.158;2022-07-15T03:46:44;9.07;;;4.63;;
16669;SDS011;8448;52.034;5.158;2022-07-15T03:49:12;8.38;;;4.10;;
16669;SDS011;8448;52.034;5.158;2022-07-15T03:51:41;6.68;;;3.53;;
16669;SDS011;8448;52.034;5.158;2022-07-15T03:54:11;8.55;;;3.47;;
16669;SDS011;8448;52.034;5.158;2022-07-15T03:56:41;7.67;;;3.80;;
16669;SDS011;8448;52.034;5.158;2022-07-15T03:59:12;10.18;;;3.50;;
16669;SDS011;8448;52.034;5.158;2022-07-15T04:01:39;7.53;;;3.03;;
16669;SDS011;8448;52.034;5.158;2022-07-15T04:04:07;5.30;;;2.83;;
16669;SDS011;8448;52.034;5.158;2022-07-15T04:06:35;5.63;;;2.97;;
16669;SDS011;8448;52.034;5.158;2022-07-15T04:09:02;7.00;;;2.60;;
16669;SDS011;8448;52.034;5.158;2022-07-15T04:11:31;5.20;;;2.57;;
16669;SDS011;8448;52.034;5.158;2022-07-15T04:13:59;5.60;;;2.90;;
16669;SDS011;8448;52.034;5.158;2022-07-15T04:16:26;5.73;;;2.50;;
16669;SDS011;8448;52.034;5.158;2022-07-15T04:18:57;8.47;;;2.40;;
16669;SDS011;8448;52.034;5.158;2022-07-15T04:21:25;7.57;;;2.47;;
16669;SDS011;8448;52.034;5.158;2022-07-15T04:23:52;4.17;;;2.27;;
16669;SDS011;8448;52.034;5.158;2022-07-15T04:26:19;6.20;;;2.10;;
16669;SDS011;8448;52.034;5.158;2022-07-15T04:28:48;6.00;;;2.65;;
16669;SDS011;8448;52.034;5.158;2022-07-15T04:31:16;7.70;;;2.43;;
16669;SDS011;8448;52.034;5.158;2022-07-15T04:33:51;7.53;;;2.80;;
16669;SDS011;8448;52.034;5.158;2022-07-15T04:36:18;6.53;;;2.40;;
16669;SDS011;8448;52.034;5.158;2022-07-15T04:38:46;10.20;;;3.00;;
16669;SDS011;8448;52.034;5.158;2022-07-15T04:41:14;6.73;;;2.57;;
16669;SDS011;8448;52.034;5.158;2022-07-15T04:43:42;6.37;;;2.47;;
16669;SDS011;8448;52.034;5.158;2022-07-15T04:46:14;4.07;;;2.30;;
16669;SDS011;8448;52.034;5.158;2022-07-15T04:48:44;6.63;;;2.57;;
16669;SDS011;8448;52.034;5.158;2022-07-15T04:51:31;6.47;;;2.70;;
16669;SDS011;8448;52.034;5.158;2022-07-15T04:53:59;6.20;;;2.80;;
16669;SDS011;8448;52.034;5.158;2022-07-15T04:56:26;6.97;;;2.83;;
16669;SDS011;8448;52.034;5.158;2022-07-15T04:59:02;7.93;;;2.60;;
16669;SDS011;8448;52.034;5.158;2022-07-15T05:01:32;6.78;;;2.85;;
16669;SDS011;8448;52.034;5.158;2022-07-15T05:03:59;7.83;;;2.80;;
16669;SDS011;8448;52.034;5.158;2022-07-15T05:06:27;8.73;;;2.57;;
16669;SDS011;8448;52.034;5.158;2022-07-15T05:08:55;6.65;;;2.80;;
16669;SDS011;8448;52.034;5.158;2022-07-15T05:11:23;5.63;;;2.53;;
16669;SDS011;8448;52.034;5.158;2022-07-15T05:13:51;10.52;;;2.95;;
16669;SDS011;8448;52.034;5.158;2022-07-15T05:16:19;9.13;;;2.77;;
16669;SDS011;8448;52.034;5.158;2022-07-15T05:18:50;6.47;;;2.70;;
16669;SDS011;8448;52.034;5.158;2022-07-15T05:21:18;13.32;;;2.92;;
16669;SDS011;8448;52.034;5.158;2022-07-15T05:23:46;8.05;;;2.67;;
16669;SDS011;8448;52.034;5.158;2022-07-15T05:26:14;6.22;;;3.13;;
16669;SDS011;8448;52.034;5.158;2022-07-15T05:28:43;12.30;;;2.78;;
16669;SDS011;8448;52.034;5.158;2022-07-15T05:31:12;5.72;;;2.47;;
16669;SDS011;8448;52.034;5.158;2022-07-15T05:33:39;7.50;;;2.50;;
16669;SDS011;8448;52.034;5.158;2022-07-15T05:36:11;5.35;;;2.60;;
16669;SDS011;8448;52.034;5.158;2022-07-15T05:38:42;6.43;;;2.95;;
16669;SDS011;8448;52.034;5.158;2022-07-15T05:41:09;5.70;;;2.53;;
16669;SDS011;8448;52.034;5.158;2022-07-15T05:43:37;6.07;;;2.80;;
16669;SDS011;8448;52.034;5.158;2022-07-15T05:46:05;6.13;;;2.58;;
16669;SDS011;8448;52.034;5.158;2022-07-15T05:48:42;8.27;;;2.30;;
16669;SDS011;8448;52.034;5.158;2022-07-15T05:51:13;5.05;;;2.20;;
16669;SDS011;8448;52.034;5.158;2022-07-15T05:53:42;4.25;;;2.08;;
16669;SDS011;8448;52.034;5.158;2022-07-15T05:56:09;4.30;;;1.88;;
16669;SDS011;8448;52.034;5.158;2022-07-15T05:58:36;6.05;;;2.20;;
16669;SDS011;8448;52.034;5.158;2022-07-15T06:01:05;6.93;;;2.15;;
16669;SDS011;8448;52.034;5.158;2022-07-15T06:03:37;3.95;;;2.15;;
16669;SDS011;8448;52.034;5.158;2022-07-15T06:06:05;8.25;;;2.20;;
16669;SDS011;8448;52.034;5.158;2022-07-15T06:08:35;5.65;;;2.30;;
16669;SDS011;8448;52.034;5.158;2022-07-15T06:11:03;4.20;;;2.10;;
16669;SDS011;8448;52.034;5.158;2022-07-15T06:13:30;6.50;;;2.10;;
16669;SDS011;8448;52.034;5.158;2022-07-15T06:15:59;5.88;;;2.20;;
16669;SDS011;8448;52.034;5.158;2022-07-15T06:18:26;5.47;;;2.47;;
16669;SDS011;8448;52.034;5.158;2022-07-15T06:20:54;7.78;;;2.25;;
16669;SDS011;8448;52.034;5.158;2022-07-15T06:23:21;4.60;;;2.00;;
16669;SDS011;8448;52.034;5.158;2022-07-15T06:25:50;5.13;;;1.60;;
16669;SDS011;8448;52.034;5.158;2022-07-15T06:28:21;4.25;;;1.63;;
16669;SDS011;8448;52.034;5.158;2022-07-15T06:30:49;6.63;;;1.90;;
16669;SDS011;8448;52.034;5.158;2022-07-15T06:33:16;5.40;;;2.00;;
16669;SDS011;8448;52.034;5.158;2022-07-15T06:35:44;6.35;;;1.63;;
16669;SDS011;8448;52.034;5.158;2022-07-15T06:38:13;4.78;;;1.30;;
16669;SDS011;8448;52.034;5.158;2022-07-15T06:40:41;3.80;;;1.50;;
16669;SDS011;8448;52.034;5.158;2022-07-15T06:43:10;6.35;;;1.60;;
16669;SDS011;8448;52.034;5.158;2022-07-15T06:46:07;4.35;;;1.15;;
16669;SDS011;8448;52.034;5.158;2022-07-15T06:48:35;4.97;;;1.25;;
16669;SDS011;8448;52.034;5.158;2022-07-15T06:51:03;5.07;;;1.58;;
16669;SDS011;8448;52.034;5.158;2022-07-15T06:53:31;4.13;;;1.50;;
16669;SDS011;8448;52.034;5.158;2022-07-15T06:55:58;6.22;;;1.23;;
16669;SDS011;8448;52.034;5.158;2022-07-15T06:58:28;3.00;;;1.10;;
16669;SDS011;8448;52.034;5.158;2022-07-15T07:00:56;2.08;;;1.00;;
16669;SDS011;8448;52.034;5.158;2022-07-15T07:03:24;3.28;;;1.20;;
16669;SDS011;8448;52.034;5.158;2022-07-15T07:05:51;6.05;;;1.30;;
16669;SDS011;8448;52.034;5.158;2022-07-15T07:08:19;4.80;;;1.15;;
16669;SDS011;8448;52.034;5.158;2022-07-15T07:10:46;4.97;;;1.40;;
16669;SDS011;8448;52.034;5.158;2022-07-15T07:13:13;6.00;;;1.30;;
16669;SDS011;8448;52.034;5.158;2022-07-15T07:15:42;4.05;;;1.27;;
16669;SDS011;8448;52.034;5.158;2022-07-15T07:18:09;4.20;;;1.00;;
16669;SDS011;8448;52.034;5.158;2022-07-15T07:20:37;4.95;;;1.15;;
16669;SDS011;8448;52.034;5.158;2022-07-15T07:23:08;4.65;;;1.50;;
16669;SDS011;8448;52.034;5.158;2022-07-15T07:25:35;3.33;;;1.20;;
16669;SDS011;8448;52.034;5.158;2022-07-15T07:28:03;5.15;;;1.30;;
16669;SDS011;8448;52.034;5.158;2022-07-15T07:30:30;3.53;;;1.30;;
16669;SDS011;8448;52.034;5.158;2022-07-15T07:32:59;4.68;;;1.30;;
16669;SDS011;8448;52.034;5.158;2022-07-15T07:35:26;5.82;;;1.38;;
16669;SDS011;8448;52.034;5.158;2022-07-15T07:37:53;5.55;;;1.10;;
16669;SDS011;8448;52.034;5.158;2022-07-15T07:40:21;5.72;;;1.40;;
16669;SDS011;8448;52.034;5.158;2022-07-15T07:42:48;4.32;;;1.10;;
16669;SDS011;8448;52.034;5.158;2022-07-15T07:45:16;2.95;;;1.20;;
16669;SDS011;8448;52.034;5.158;2022-07-15T07:47:43;5.07;;;1.10;;
16669;SDS011;8448;52.034;5.158;2022-07-15T07:50:12;4.40;;;1.17;;
16669;SDS011;8448;52.034;5.158;2022-07-15T07:52:40;5.95;;;1.20;;
16669;SDS011;8448;52.034;5.158;2022-07-15T07:55:07;6.70;;;1.50;;
16669;SDS011;8448;52.034;5.158;2022-07-15T07:57:35;3.17;;;1.10;;
16669;SDS011;8448;52.034;5.158;2022-07-15T08:00:12;2.88;;;1.10;;
16669;SDS011;8448;52.034;5.158;2022-07-15T08:02:40;4.75;;;1.00;;
16669;SDS011;8448;52.034;5.158;2022-07-15T08:05:08;3.88;;;1.20;;
16669;SDS011;8448;52.034;5.158;2022-07-15T08:07:37;2.80;;;1.08;;
16669;SDS011;8448;52.034;5.158;2022-07-15T08:10:05;3.42;;;0.85;;
16669;SDS011;8448;52.034;5.158;2022-07-15T08:12:33;2.85;;;0.98;;
16669;SDS011;8448;52.034;5.158;2022-07-15T08:15:03;3.65;;;1.02;;
16669;SDS011;8448;52.034;5.158;2022-07-15T08:17:31;4.05;;;1.20;;
16669;SDS011;8448;52.034;5.158;2022-07-15T08:19:58;4.15;;;1.10;;
16669;SDS011;8448;52.034;5.158;2022-07-15T08:22:25;5.80;;;1.42;;
16669;SDS011;8448;52.034;5.158;2022-07-15T08:24:54;3.45;;;1.02;;
16669;SDS011;8448;52.034;5.158;2022-07-15T08:27:22;3.45;;;1.33;;
16669;SDS011;8448;52.034;5.158;2022-07-15T08:29:49;1.83;;;0.70;;
16669;SDS011;8448;52.034;5.158;2022-07-15T08:32:16;4.18;;;1.08;;
16669;SDS011;8448;52.034;5.158;2022-07-15T08:34:43;4.47;;;1.23;;
16669;SDS011;8448;52.034;5.158;2022-07-15T08:37:12;3.22;;;1.02;;
16669;SDS011;8448;52.034;5.158;2022-07-15T08:39:39;2.78;;;0.80;;
16669;SDS011;8448;52.034;5.158;2022-07-15T08:42:08;3.25;;;0.80;;
16669;SDS011;8448;52.034;5.158;2022-07-15T08:44:35;5.28;;;1.10;;
16669;SDS011;8448;52.034;5.158;2022-07-15T08:47:04;2.25;;;0.95;;
16669;SDS011;8448;52.034;5.158;2022-07-15T08:49:32;1.77;;;0.75;;
16669;SDS011;8448;52.034;5.158;2022-07-15T08:52:04;3.25;;;0.90;;
16669;SDS011;8448;52.034;5.158;2022-07-15T08:54:32;2.80;;;0.80;;
16669;SDS011;8448;52.034;5.158;2022-07-15T08:57:00;2.28;;;1.02;;
16669;SDS011;8448;52.034;5.158;2022-07-15T08:59:29;4.47;;;0.85;;
16669;SDS011;8448;52.034;5.158;2022-07-15T09:01:57;2.60;;;0.85;;
16669;SDS011;8448;52.034;5.158;2022-07-15T09:04:25;4.65;;;0.85;;
16669;SDS011;8448;52.034;5.158;2022-07-15T09:06:52;2.50;;;0.90;;
16669;SDS011;8448;52.034;5.158;2022-07-15T09:09:24;1.70;;;0.88;;
16669;SDS011;8448;52.034;5.158;2022-07-15T09:11:53;2.20;;;0.82;;
16669;SDS011;8448;52.034;5.158;2022-07-15T09:14:30;3.25;;;0.80;;
16669;SDS011;8448;52.034;5.158;2022-07-15T09:17:05;1.70;;;0.75;;
16669;SDS011;8448;52.034;5.158;2022-07-15T09:22:24;1.58;;;0.70;;
16669;SDS011;8448;52.034;5.158;2022-07-15T09:25:00;2.63;;;0.70;;
16669;SDS011;8448;52.034;5.158;2022-07-15T09:27:31;1.30;;;0.70;;
16669;SDS011;8448;52.034;5.158;2022-07-15T09:30:13;1.60;;;0.50;;
16669;SDS011;8448;52.034;5.158;2022-07-15T09:33:00;1.85;;;0.60;;
16669;SDS011;8448;52.034;5.158;2022-07-15T09:35:46;1.98;;;0.88;;
16669;SDS011;8448;52.034;5.158;2022-07-15T09:38:36;3.13;;;0.70;;
16669;SDS011;8448;52.034;5.158;2022-07-15T09:41:07;2.03;;;0.73;;
16669;SDS011;8448;52.034;5.158;2022-07-15T09:43:47;1.75;;;0.60;;
16669;SDS011;8448;52.034;5.158;2022-07-15T09:46:20;0.85;;;0.80;;
16669;SDS011;8448;52.034;5.158;2022-07-15T09:48:49;3.00;;;0.70;;
16669;SDS011;8448;52.034;5.158;2022-07-15T09:51:17;1.13;;;0.65;;
16669;SDS011;8448;52.034;5.158;2022-07-15T09:53:45;2.40;;;0.50;;
16669;SDS011;8448;52.034;5.158;2022-07-15T09:56:14;2.20;;;0.68;;
16669;SDS011;8448;52.034;5.158;2022-07-15T09:58:47;0.85;;;0.50;;
16669;SDS011;8448;52.034;5.158;2022-07-15T10:01:15;3.97;;;0.80;;
16669;SDS011;8448;52.034;5.158;2022-07-15T10:03:43;1.67;;;0.70;;
16669;SDS011;8448;52.034;5.158;2022-07-15T10:06:12;2.40;;;0.82;;
16669;SDS011;8448;52.034;5.158;2022-07-15T10:08:43;1.40;;;0.65;;
16669;SDS011;8448;52.034;5.158;2022-07-15T10:11:13;2.97;;;0.70;;
16669;SDS011;8448;52.034;5.158;2022-07-15T10:16:58;2.30;;;0.70;;
16669;SDS011;8448;52.034;5.158;2022-07-15T10:20:02;0.77;;;0.60;;
16669;SDS011;8448;52.034;5.158;2022-07-15T10:22:42;1.75;;;0.60;;
16669;SDS011;8448;52.034;5.158;2022-07-15T10:25:23;1.52;;;0.68;;
16669;SDS011;8448;52.034;5.158;2022-07-15T10:28:05;3.58;;;0.80;;
16669;SDS011;8448;52.034;5.158;2022-07-15T10:30:36;1.55;;;0.70;;
16669;SDS011;8448;52.034;5.158;2022-07-15T10:33:08;2.17;;;0.70;;
16669;SDS011;8448;52.034;5.158;2022-07-15T10:35:43;4.13;;;1.08;;
16669;SDS011;8448;52.034;5.158;2022-07-15T10:38:22;2.33;;;0.98;;
16669;SDS011;8448;52.034;5.158;2022-07-15T10:43:47;2.97;;;0.77;;
16669;SDS011;8448;52.034;5.158;2022-07-15T10:46:23;2.05;;;0.75;;
16669;SDS011;8448;52.034;5.158;2022-07-15T10:48:52;1.92;;;0.80;;
16669;SDS011;8448;52.034;5.158;2022-07-15T10:51:44;1.88;;;0.70;;
16669;SDS011;8448;52.034;5.158;2022-07-15T10:57:07;1.13;;;0.57;;
16669;SDS011;8448;52.034;5.158;2022-07-15T10:59:36;5.63;;;0.85;;
16669;SDS011;8448;52.034;5.158;2022-07-15T11:02:11;1.90;;;0.77;;
16669;SDS011;8448;52.034;5.158;2022-07-15T11:04:39;1.42;;;0.60;;
16669;SDS011;8448;52.034;5.158;2022-07-15T11:09:56;1.55;;;0.60;;
16669;SDS011;8448;52.034;5.158;2022-07-15T11:12:57;3.05;;;0.88;;
16669;SDS011;8448;52.034;5.158;2022-07-15T11:15:26;1.50;;;0.50;;
16669;SDS011;8448;52.034;5.158;2022-07-15T11:17:55;1.27;;;0.50;;
16669;SDS011;8448;52.034;5.158;2022-07-15T11:20:23;1.13;;;0.80;;
16669;SDS011;8448;52.034;5.158;2022-07-15T11:23:00;2.25;;;0.80;;
16669;SDS011;8448;52.034;5.158;2022-07-15T11:25:29;1.90;;;0.73;;
16669;SDS011;8448;52.034;5.158;2022-07-15T11:28:02;2.20;;;0.60;;
16669;SDS011;8448;52.034;5.158;2022-07-15T11:30:33;2.25;;;0.60;;
16669;SDS011;8448;52.034;5.158;2022-07-15T11:33:03;1.85;;;0.80;;
16669;SDS011;8448;52.034;5.158;2022-07-15T11:35:31;2.47;;;0.68;;
16669;SDS011;8448;52.034;5.158;2022-07-15T11:38:13;1.35;;;0.73;;
16669;SDS011;8448;52.034;5.158;2022-07-15T11:40:45;2.15;;;0.63;;
16669;SDS011;8448;52.034;5.158;2022-07-15T11:43:32;2.25;;;0.65;;
16669;SDS011;8448;52.034;5.158;2022-07-15T11:46:17;1.20;;;0.70;;
16669;SDS011;8448;52.034;5.158;2022-07-15T11:48:44;1.70;;;0.70;;
16669;SDS011;8448;52.034;5.158;2022-07-15T11:51:12;1.67;;;0.77;;
16669;SDS011;8448;52.034;5.158;2022-07-15T11:53:42;1.45;;;0.60;;
16669;SDS011;8448;52.034;5.158;2022-07-15T11:56:10;1.35;;;0.70;;
16669;SDS011;8448;52.034;5.158;2022-07-15T11:58:39;1.38;;;0.90;;
16669;SDS011;8448;52.034;5.158;2022-07-15T12:01:08;1.15;;;0.88;;
16669;SDS011;8448;52.034;5.158;2022-07-15T12:03:38;1.95;;;0.80;;
16669;SDS011;8448;52.034;5.158;2022-07-15T12:06:11;1.45;;;0.85;;
16669;SDS011;8448;52.034;5.158;2022-07-15T12:08:46;1.58;;;0.93;;
16669;SDS011;8448;52.034;5.158;2022-07-15T12:11:15;2.53;;;1.05;;
16669;SDS011;8448;52.034;5.158;2022-07-15T12:13:48;2.30;;;1.10;;
16669;SDS011;8448;52.034;5.158;2022-07-15T12:16:18;1.67;;;1.00;;
16669;SDS011;8448;52.034;5.158;2022-07-15T12:18:48;1.42;;;1.10;;
16669;SDS011;8448;52.034;5.158;2022-07-15T12:21:15;2.08;;;1.23;;
16669;SDS011;8448;52.034;5.158;2022-07-15T12:23:57;3.03;;;1.30;;
16669;SDS011;8448;52.034;5.158;2022-07-15T12:26:33;2.22;;;1.48;;
16669;SDS011;8448;52.034;5.158;2022-07-15T12:29:03;2.50;;;1.52;;
16669;SDS011;8448;52.034;5.158;2022-07-15T12:31:33;2.03;;;1.40;;
16669;SDS011;8448;52.034;5.158;2022-07-15T12:34:02;3.88;;;1.42;;
16669;SDS011;8448;52.034;5.158;2022-07-15T12:36:31;2.25;;;1.40;;
16669;SDS011;8448;52.034;5.158;2022-07-15T12:39:11;2.38;;;1.20;;
16669;SDS011;8448;52.034;5.158;2022-07-15T12:41:41;1.92;;;1.38;;
16669;SDS011;8448;52.034;5.158;2022-07-15T12:44:09;4.05;;;1.48;;
16669;SDS011;8448;52.034;5.158;2022-07-15T12:46:50;2.90;;;1.30;;
16669;SDS011;8448;52.034;5.158;2022-07-15T12:49:38;1.35;;;1.10;;
16669;SDS011;8448;52.034;5.158;2022-07-15T12:52:16;1.85;;;1.02;;
16669;SDS011;8448;52.034;5.158;2022-07-15T12:54:53;2.38;;;1.30;;
16669;SDS011;8448;52.034;5.158;2022-07-15T12:57:22;3.20;;;1.17;;
16669;SDS011;8448;52.034;5.158;2022-07-15T12:59:54;2.13;;;1.20;;
16669;SDS011;8448;52.034;5.158;2022-07-15T13:02:22;1.38;;;1.20;;
16669;SDS011;8448;52.034;5.158;2022-07-15T13:04:50;4.35;;;1.20;;
16669;SDS011;8448;52.034;5.158;2022-07-15T13:07:17;3.28;;;1.38;;
16669;SDS011;8448;52.034;5.158;2022-07-15T13:09:45;1.70;;;1.20;;
16669;SDS011;8448;52.034;5.158;2022-07-15T13:12:13;2.88;;;1.17;;
16669;SDS011;8448;52.034;5.158;2022-07-15T13:14:41;2.35;;;1.20;;
16669;SDS011;8448;52.034;5.158;2022-07-15T13:17:08;3.95;;;1.40;;
16669;SDS011;8448;52.034;5.158;2022-07-15T13:19:36;2.45;;;1.20;;
16669;SDS011;8448;52.034;5.158;2022-07-15T13:22:03;2.00;;;1.55;;
16669;SDS011;8448;52.034;5.158;2022-07-15T13:24:30;1.75;;;1.35;;
16669;SDS011;8448;52.034;5.158;2022-07-15T13:26:58;4.22;;;1.70;;
16669;SDS011;8448;52.034;5.158;2022-07-15T13:29:26;3.17;;;1.30;;
16669;SDS011;8448;52.034;5.158;2022-07-15T13:31:53;3.20;;;1.52;;
16669;SDS011;8448;52.034;5.158;2022-07-15T13:34:21;3.30;;;1.70;;
16669;SDS011;8448;52.034;5.158;2022-07-15T13:36:48;2.58;;;1.50;;
16669;SDS011;8448;52.034;5.158;2022-07-15T13:39:15;4.75;;;1.52;;
16669;SDS011;8448;52.034;5.158;2022-07-15T13:41:42;4.20;;;1.60;;
16669;SDS011;8448;52.034;5.158;2022-07-15T13:44:10;2.47;;;1.35;;
16669;SDS011;8448;52.034;5.158;2022-07-15T13:46:38;2.25;;;1.50;;
16669;SDS011;8448;52.034;5.158;2022-07-15T13:49:06;2.30;;;1.45;;
16669;SDS011;8448;52.034;5.158;2022-07-15T13:51:34;3.10;;;1.60;;
16669;SDS011;8448;52.034;5.158;2022-07-15T13:54:01;3.63;;;1.55;;
16669;SDS011;8448;52.034;5.158;2022-07-15T13:56:29;2.60;;;1.83;;
16669;SDS011;8448;52.034;5.158;2022-07-15T13:58:56;3.28;;;1.65;;
16669;SDS011;8448;52.034;5.158;2022-07-15T14:01:25;3.35;;;1.60;;
16669;SDS011;8448;52.034;5.158;2022-07-15T14:03:54;3.10;;;1.50;;
16669;SDS011;8448;52.034;5.158;2022-07-15T14:06:22;3.45;;;1.73;;
16669;SDS011;8448;52.034;5.158;2022-07-15T14:08:50;2.85;;;1.73;;
16669;SDS011;8448;52.034;5.158;2022-07-15T14:11:17;2.22;;;1.60;;
16669;SDS011;8448;52.034;5.158;2022-07-15T14:13:45;2.30;;;1.73;;
16669;SDS011;8448;52.034;5.158;2022-07-15T14:16:12;2.30;;;1.58;;
16669;SDS011;8448;52.034;5.158;2022-07-15T14:18:39;6.82;;;1.70;;
16669;SDS011;8448;52.034;5.158;2022-07-15T14:21:12;3.53;;;2.00;;
16669;SDS011;8448;52.034;5.158;2022-07-15T14:23:40;4.18;;;1.88;;
16669;SDS011;8448;52.034;5.158;2022-07-15T14:26:08;3.17;;;1.80;;
16669;SDS011;8448;52.034;5.158;2022-07-15T14:28:36;2.28;;;1.55;;
16669;SDS011;8448;52.034;5.158;2022-07-15T14:31:04;3.85;;;1.60;;
16669;SDS011;8448;52.034;5.158;2022-07-15T14:33:31;4.03;;;1.75;;
16669;SDS011;8448;52.034;5.158;2022-07-15T14:35:59;2.95;;;1.70;;
16669;SDS011;8448;52.034;5.158;2022-07-15T14:38:28;2.47;;;1.42;;
16669;SDS011;8448;52.034;5.158;2022-07-15T14:40:57;3.55;;;1.80;;
16669;SDS011;8448;52.034;5.158;2022-07-15T14:43:24;4.43;;;1.70;;
16669;SDS011;8448;52.034;5.158;2022-07-15T14:45:51;2.67;;;1.60;;
16669;SDS011;8448;52.034;5.158;2022-07-15T14:48:19;4.03;;;2.10;;
16669;SDS011;8448;52.034;5.158;2022-07-15T14:50:46;4.80;;;2.00;;
16669;SDS011;8448;52.034;5.158;2022-07-15T14:53:13;4.80;;;2.25;;
16669;SDS011;8448;52.034;5.158;2022-07-15T14:55:42;3.50;;;1.70;;
16669;SDS011;8448;52.034;5.158;2022-07-15T14:58:09;6.53;;;2.30;;
16669;SDS011;8448;52.034;5.158;2022-07-15T15:00:37;2.80;;;1.83;;
16669;SDS011;8448;52.034;5.158;2022-07-15T15:03:05;4.32;;;1.80;;
16669;SDS011;8448;52.034;5.158;2022-07-15T15:05:32;3.65;;;2.10;;
16669;SDS011;8448;52.034;5.158;2022-07-15T15:07:59;4.57;;;2.10;;
16669;SDS011;8448;52.034;5.158;2022-07-15T15:10:27;3.65;;;2.00;;
16669;SDS011;8448;52.034;5.158;2022-07-15T15:12:55;3.95;;;1.90;;
16669;SDS011;8448;52.034;5.158;2022-07-15T15:15:23;4.55;;;1.80;;
16669;SDS011;8448;52.034;5.158;2022-07-15T15:17:50;3.97;;;1.80;;
16669;SDS011;8448;52.034;5.158;2022-07-15T15:20:18;2.30;;;1.90;;
16669;SDS011;8448;52.034;5.158;2022-07-15T15:22:45;3.10;;;1.60;;
16669;SDS011;8448;52.034;5.158;2022-07-15T15:25:13;3.33;;;2.00;;
16669;SDS011;8448;52.034;5.158;2022-07-15T15:28:02;4.35;;;2.08;;
16669;SDS011;8448;52.034;5.158;2022-07-15T15:30:30;5.28;;;2.08;;